sensor_id;sensor_type;location;lat;lon;timestamp;P1;durP1;ratioP1;P2;durP2;ratioP2
35679;SDS011;21803;53.586;10.040;2023-10-13T00:01:55;1.27;;;0.90;;
35679;SDS011;21803;53.586;10.040;2023-10-13T00:04:23;1.65;;;0.85;;
35679;SDS011;21803;53.586;10.040;2023-10-13T00:06:53;1.10;;;1.00;;
35679;SDS011;21803;53.586;10.040;2023-10-13T00:09:23;1.50;;;0.80;;
35679;SDS011;21803;53.586;10.040;2023-10-13T00:11:51;1.38;;;0.90;;
35679;SDS011;21803;53.586;10.040;2023-10-13T00:14:18;1.23;;;0.70;;
35679;SDS011;21803;53.586;10.040;2023-10-13T00:16:46;1.27;;;0.95;;
35679;SDS011;21803;53.586;10.040;2023-10-13T00:22:07;1.17;;;0.75;;
35679;SDS011;21803;53.586;10.040;2023-10-13T00:24:40;1.60;;;0.80;;
35679;SDS011;21803;53.586;10.040;2023-10-13T00:27:16;0.90;;;0.80;;
35679;SDS011;21803;53.586;10.040;2023-10-13T00:30:04;1.83;;;0.85;;
35679;SDS011;21803;53.586;10.040;2023-10-13T00:32:48;1.10;;;0.80;;
35679;SDS011;21803;53.586;10.040;2023-10-13T00:35:20;1.52;;;0.80;;
35679;SDS011;21803;53.586;10.040;2023-10-13T00:38:01;1.75;;;1.15;;
35679;SDS011;21803;53.586;10.040;2023-10-13T00:40:42;1.83;;;0.70;;
35679;SDS011;21803;53.586;10.040;2023-10-13T00:43:21;0.73;;;0.63;;
35679;SDS011;21803;53.586;10.040;2023-10-13T00:45:49;1.10;;;0.77;;
35679;SDS011;21803;53.586;10.040;2023-10-13T00:48:39;0.93;;;0.73;;
35679;SDS011;21803;53.586;10.040;2023-10-13T00:51:19;1.20;;;0.95;;
35679;SDS011;21803;53.586;10.040;2023-10-13T00:53:58;1.55;;;0.85;;
35679;SDS011;21803;53.586;10.040;2023-10-13T00:56:37;1.25;;;0.88;;
35679;SDS011;21803;53.586;10.040;2023-10-13T00:59:08;1.20;;;0.82;;
35679;SDS011;21803;53.586;10.040;2023-10-13T01:01:35;0.98;;;0.80;;
35679;SDS011;21803;53.586;10.040;2023-10-13T01:04:01;2.17;;;0.93;;
35679;SDS011;21803;53.586;10.040;2023-10-13T01:06:30;0.88;;;0.80;;
35679;SDS011;21803;53.586;10.040;2023-10-13T01:11:38;1.60;;;0.88;;
35679;SDS011;21803;53.586;10.040;2023-10-13T01:14:04;1.73;;;0.90;;
35679;SDS011;21803;53.586;10.040;2023-10-13T01:16:30;1.15;;;0.70;;
35679;SDS011;21803;53.586;10.040;2023-10-13T01:18:55;0.90;;;0.77;;
35679;SDS011;21803;53.586;10.040;2023-10-13T01:21:24;1.23;;;0.82;;
35679;SDS011;21803;53.586;10.040;2023-10-13T01:23:52;1.40;;;0.88;;
35679;SDS011;21803;53.586;10.040;2023-10-13T01:26:18;1.02;;;0.88;;
35679;SDS011;21803;53.586;10.040;2023-10-13T01:28:51;1.25;;;0.80;;
35679;SDS011;21803;53.586;10.040;2023-10-13T01:31:21;0.98;;;0.88;;
35679;SDS011;21803;53.586;10.040;2023-10-13T01:33:53;1.17;;;0.98;;
35679;SDS011;21803;53.586;10.040;2023-10-13T01:36:22;1.20;;;0.82;;
35679;SDS011;21803;53.586;10.040;2023-10-13T01:38:48;2.00;;;1.00;;
35679;SDS011;21803;53.586;10.040;2023-10-13T01:41:15;2.03;;;0.90;;
35679;SDS011;21803;53.586;10.040;2023-10-13T01:43:41;2.00;;;0.88;;
35679;SDS011;21803;53.586;10.040;2023-10-13T01:46:07;1.00;;;0.80;;
35679;SDS011;21803;53.586;10.040;2023-10-13T01:48:34;1.27;;;0.75;;
35679;SDS011;21803;53.586;10.040;2023-10-13T01:51:04;1.45;;;0.90;;
35679;SDS011;21803;53.586;10.040;2023-10-13T01:53:30;1.75;;;0.90;;
35679;SDS011;21803;53.586;10.040;2023-10-13T01:55:56;1.60;;;0.68;;
35679;SDS011;21803;53.586;10.040;2023-10-13T01:58:22;0.95;;;0.63;;
35679;SDS011;21803;53.586;10.040;2023-10-13T02:00:51;1.08;;;0.70;;
35679;SDS011;21803;53.586;10.040;2023-10-13T02:03:17;1.00;;;0.60;;
35679;SDS011;21803;53.586;10.040;2023-10-13T02:08:12;1.23;;;0.73;;
35679;SDS011;21803;53.586;10.040;2023-10-13T02:10:49;0.90;;;0.70;;
35679;SDS011;21803;53.586;10.040;2023-10-13T02:13:16;1.15;;;0.68;;
35679;SDS011;21803;53.586;10.040;2023-10-13T02:15:46;1.40;;;0.80;;
35679;SDS011;21803;53.586;10.040;2023-10-13T02:18:14;2.30;;;1.00;;
35679;SDS011;21803;53.586;10.040;2023-10-13T02:20:53;1.35;;;0.85;;
35679;SDS011;21803;53.586;10.040;2023-10-13T02:23:29;0.70;;;0.68;;
35679;SDS011;21803;53.586;10.040;2023-10-13T02:25:55;0.90;;;0.70;;
35679;SDS011;21803;53.586;10.040;2023-10-13T02:28:35;1.13;;;0.80;;
35679;SDS011;21803;53.586;10.040;2023-10-13T02:31:01;1.45;;;0.80;;
35679;SDS011;21803;53.586;10.040;2023-10-13T02:33:28;0.95;;;0.70;;
35679;SDS011;21803;53.586;10.040;2023-10-13T02:36:03;1.40;;;0.90;;
35679;SDS011;21803;53.586;10.040;2023-10-13T02:38:30;1.02;;;0.75;;
35679;SDS011;21803;53.586;10.040;2023-10-13T02:41:11;1.50;;;0.80;;
35679;SDS011;21803;53.586;10.040;2023-10-13T02:43:50;1.02;;;0.80;;
35679;SDS011;21803;53.586;10.040;2023-10-13T02:46:17;0.90;;;0.70;;
35679;SDS011;21803;53.586;10.040;2023-10-13T02:49:05;1.05;;;0.70;;
35679;SDS011;21803;53.586;10.040;2023-10-13T02:51:38;2.10;;;1.33;;
35679;SDS011;21803;53.586;10.040;2023-10-13T02:54:06;1.73;;;0.77;;
35679;SDS011;21803;53.586;10.040;2023-10-13T02:56:36;2.53;;;0.90;;
35679;SDS011;21803;53.586;10.040;2023-10-13T02:59:03;1.15;;;0.80;;
35679;SDS011;21803;53.586;10.040;2023-10-13T03:01:32;1.10;;;0.80;;
35679;SDS011;21803;53.586;10.040;2023-10-13T03:03:59;2.45;;;1.08;;
35679;SDS011;21803;53.586;10.040;2023-10-13T03:06:26;1.33;;;0.80;;
35679;SDS011;21803;53.586;10.040;2023-10-13T03:08:58;1.10;;;0.70;;
35679;SDS011;21803;53.586;10.040;2023-10-13T03:11:43;1.50;;;0.80;;
35679;SDS011;21803;53.586;10.040;2023-10-13T03:14:16;1.20;;;0.80;;
35679;SDS011;21803;53.586;10.040;2023-10-13T03:16:58;1.10;;;0.80;;
35679;SDS011;21803;53.586;10.040;2023-10-13T03:19:27;1.20;;;0.82;;
35679;SDS011;21803;53.586;10.040;2023-10-13T03:21:58;0.90;;;0.80;;
35679;SDS011;21803;53.586;10.040;2023-10-13T03:24:34;1.00;;;0.75;;
35679;SDS011;21803;53.586;10.040;2023-10-13T03:27:01;1.77;;;0.80;;
35679;SDS011;21803;53.586;10.040;2023-10-13T03:29:36;1.13;;;0.75;;
35679;SDS011;21803;53.586;10.040;2023-10-13T03:32:11;1.17;;;0.85;;
35679;SDS011;21803;53.586;10.040;2023-10-13T03:34:38;1.00;;;0.80;;
35679;SDS011;21803;53.586;10.040;2023-10-13T03:37:17;1.15;;;0.80;;
35679;SDS011;21803;53.586;10.040;2023-10-13T03:39:45;1.63;;;0.90;;
35679;SDS011;21803;53.586;10.040;2023-10-13T03:42:11;1.20;;;0.88;;
35679;SDS011;21803;53.586;10.040;2023-10-13T03:44:54;1.50;;;0.70;;
35679;SDS011;21803;53.586;10.040;2023-10-13T03:47:20;1.05;;;0.73;;
35679;SDS011;21803;53.586;10.040;2023-10-13T03:49:52;1.13;;;0.70;;
35679;SDS011;21803;53.586;10.040;2023-10-13T03:52:38;1.33;;;0.82;;
35679;SDS011;21803;53.586;10.040;2023-10-13T03:55:04;1.42;;;0.80;;
35679;SDS011;21803;53.586;10.040;2023-10-13T03:57:31;1.15;;;0.80;;
35679;SDS011;21803;53.586;10.040;2023-10-13T04:00:02;1.25;;;0.77;;
35679;SDS011;21803;53.586;10.040;2023-10-13T04:02:34;0.90;;;0.68;;
35679;SDS011;21803;53.586;10.040;2023-10-13T04:05:01;1.10;;;0.70;;
35679;SDS011;21803;53.586;10.040;2023-10-13T04:07:33;0.95;;;0.70;;
35679;SDS011;21803;53.586;10.040;2023-10-13T04:10:07;1.80;;;1.00;;
35679;SDS011;21803;53.586;10.040;2023-10-13T04:13:04;1.13;;;0.70;;
35679;SDS011;21803;53.586;10.040;2023-10-13T04:15:49;0.77;;;0.63;;
35679;SDS011;21803;53.586;10.040;2023-10-13T04:18:39;1.23;;;0.80;;
35679;SDS011;21803;53.586;10.040;2023-10-13T04:21:23;1.10;;;0.90;;
35679;SDS011;21803;53.586;10.040;2023-10-13T04:24:12;0.70;;;0.55;;
35679;SDS011;21803;53.586;10.040;2023-10-13T04:26:44;0.98;;;0.77;;
35679;SDS011;21803;53.586;10.040;2023-10-13T04:29:28;0.88;;;0.70;;
35679;SDS011;21803;53.586;10.040;2023-10-13T04:32:12;1.20;;;0.80;;
35679;SDS011;21803;53.586;10.040;2023-10-13T04:34:53;1.55;;;0.70;;
35679;SDS011;21803;53.586;10.040;2023-10-13T04:37:42;1.50;;;0.70;;
35679;SDS011;21803;53.586;10.040;2023-10-13T04:40:34;1.30;;;0.80;;
35679;SDS011;21803;53.586;10.040;2023-10-13T04:43:23;0.90;;;0.70;;
35679;SDS011;21803;53.586;10.040;2023-10-13T04:45:59;1.00;;;0.73;;
35679;SDS011;21803;53.586;10.040;2023-10-13T04:48:39;0.90;;;0.70;;
35679;SDS011;21803;53.586;10.040;2023-10-13T04:51:05;1.00;;;0.80;;
35679;SDS011;21803;53.586;10.040;2023-10-13T04:54:09;1.23;;;0.88;;
35679;SDS011;21803;53.586;10.040;2023-10-13T04:56:50;1.15;;;0.85;;
35679;SDS011;21803;53.586;10.040;2023-10-13T04:59:39;0.75;;;0.65;;
35679;SDS011;21803;53.586;10.040;2023-10-13T05:02:23;0.60;;;0.60;;
35679;SDS011;21803;53.586;10.040;2023-10-13T05:05:01;1.40;;;0.70;;
35679;SDS011;21803;53.586;10.040;2023-10-13T05:07:46;2.17;;;0.88;;
35679;SDS011;21803;53.586;10.040;2023-10-13T05:10:31;0.90;;;0.77;;
35679;SDS011;21803;53.586;10.040;2023-10-13T05:13:17;1.02;;;0.73;;
35679;SDS011;21803;53.586;10.040;2023-10-13T05:16:01;2.03;;;0.88;;
35679;SDS011;21803;53.586;10.040;2023-10-13T05:18:45;1.25;;;0.85;;
35679;SDS011;21803;53.586;10.040;2023-10-13T05:21:29;1.40;;;0.70;;
35679;SDS011;21803;53.586;10.040;2023-10-13T05:24:13;0.80;;;0.60;;
35679;SDS011;21803;53.586;10.040;2023-10-13T05:26:57;1.27;;;0.80;;
35679;SDS011;21803;53.586;10.040;2023-10-13T05:29:42;1.65;;;0.90;;
35679;SDS011;21803;53.586;10.040;2023-10-13T05:32:27;1.40;;;0.73;;
35679;SDS011;21803;53.586;10.040;2023-10-13T05:35:11;0.77;;;0.70;;
35679;SDS011;21803;53.586;10.040;2023-10-13T05:37:56;0.73;;;0.70;;
35679;SDS011;21803;53.586;10.040;2023-10-13T05:40:40;1.45;;;0.70;;
35679;SDS011;21803;53.586;10.040;2023-10-13T05:43:34;1.02;;;0.80;;
35679;SDS011;21803;53.586;10.040;2023-10-13T05:46:18;1.30;;;0.80;;
35679;SDS011;21803;53.586;10.040;2023-10-13T05:48:49;1.25;;;0.85;;
35679;SDS011;21803;53.586;10.040;2023-10-13T05:51:25;1.15;;;0.90;;
35679;SDS011;21803;53.586;10.040;2023-10-13T05:53:58;1.10;;;0.95;;
35679;SDS011;21803;53.586;10.040;2023-10-13T05:59:27;3.03;;;0.80;;
35679;SDS011;21803;53.586;10.040;2023-10-13T06:02:12;3.80;;;0.80;;
35679;SDS011;21803;53.586;10.040;2023-10-13T06:05:01;2.83;;;0.73;;
35679;SDS011;21803;53.586;10.040;2023-10-13T06:07:45;2.58;;;0.90;;
35679;SDS011;21803;53.586;10.040;2023-10-13T06:10:29;0.90;;;0.80;;
35679;SDS011;21803;53.586;10.040;2023-10-13T06:13:13;2.30;;;0.90;;
35679;SDS011;21803;53.586;10.040;2023-10-13T06:15:57;1.42;;;0.90;;
35679;SDS011;21803;53.586;10.040;2023-10-13T06:18:41;2.55;;;1.17;;
35679;SDS011;21803;53.586;10.040;2023-10-13T06:21:25;1.65;;;0.82;;
35679;SDS011;21803;53.586;10.040;2023-10-13T06:24:10;2.30;;;0.77;;
35679;SDS011;21803;53.586;10.040;2023-10-13T06:26:54;2.15;;;0.90;;
35679;SDS011;21803;53.586;10.040;2023-10-13T06:29:38;1.02;;;0.70;;
35679;SDS011;21803;53.586;10.040;2023-10-13T06:32:03;2.90;;;0.90;;
35679;SDS011;21803;53.586;10.040;2023-10-13T06:34:38;2.65;;;0.90;;
35679;SDS011;21803;53.586;10.040;2023-10-13T06:37:13;1.48;;;1.00;;
35679;SDS011;21803;53.586;10.040;2023-10-13T06:39:54;1.30;;;1.00;;
35679;SDS011;21803;53.586;10.040;2023-10-13T06:42:24;1.50;;;1.00;;
35679;SDS011;21803;53.586;10.040;2023-10-13T06:44:55;1.00;;;0.80;;
35679;SDS011;21803;53.586;10.040;2023-10-13T06:47:21;1.38;;;0.88;;
35679;SDS011;21803;53.586;10.040;2023-10-13T06:49:47;2.47;;;0.90;;
35679;SDS011;21803;53.586;10.040;2023-10-13T06:52:16;1.55;;;0.85;;
35679;SDS011;21803;53.586;10.040;2023-10-13T06:54:49;1.30;;;0.80;;
35679;SDS011;21803;53.586;10.040;2023-10-13T06:57:15;1.25;;;0.85;;
35679;SDS011;21803;53.586;10.040;2023-10-13T06:59:45;2.53;;;0.90;;
35679;SDS011;21803;53.586;10.040;2023-10-13T07:02:11;1.10;;;0.95;;
35679;SDS011;21803;53.586;10.040;2023-10-13T07:04:46;0.80;;;0.77;;
35679;SDS011;21803;53.586;10.040;2023-10-13T07:07:21;1.33;;;0.90;;
35679;SDS011;21803;53.586;10.040;2023-10-13T07:09:48;0.98;;;0.88;;
35679;SDS011;21803;53.586;10.040;2023-10-13T07:12:20;2.15;;;1.00;;
35679;SDS011;21803;53.586;10.040;2023-10-13T07:14:51;2.08;;;1.02;;
35679;SDS011;21803;53.586;10.040;2023-10-13T07:17:21;1.15;;;0.93;;
35679;SDS011;21803;53.586;10.040;2023-10-13T07:19:52;1.48;;;0.98;;
35679;SDS011;21803;53.586;10.040;2023-10-13T07:22:18;1.08;;;0.90;;
35679;SDS011;21803;53.586;10.040;2023-10-13T07:24:48;0.82;;;0.82;;
35679;SDS011;21803;53.586;10.040;2023-10-13T07:27:20;1.23;;;0.90;;
35679;SDS011;21803;53.586;10.040;2023-10-13T07:32:22;0.80;;;0.80;;
35679;SDS011;21803;53.586;10.040;2023-10-13T07:34:54;3.47;;;1.10;;
35679;SDS011;21803;53.586;10.040;2023-10-13T07:37:23;3.40;;;1.00;;
35679;SDS011;21803;53.586;10.040;2023-10-13T07:39:53;1.58;;;1.00;;
35679;SDS011;21803;53.586;10.040;2023-10-13T07:42:22;1.20;;;1.00;;
35679;SDS011;21803;53.586;10.040;2023-10-13T07:44:51;1.05;;;0.80;;
35679;SDS011;21803;53.586;10.040;2023-10-13T07:47:20;2.15;;;1.10;;
35679;SDS011;21803;53.586;10.040;2023-10-13T07:49:49;1.85;;;0.90;;
35679;SDS011;21803;53.586;10.040;2023-10-13T07:52:15;1.35;;;0.80;;
35679;SDS011;21803;53.586;10.040;2023-10-13T07:55:01;1.88;;;1.17;;
35679;SDS011;21803;53.586;10.040;2023-10-13T07:57:46;6.82;;;1.52;;
35679;SDS011;21803;53.586;10.040;2023-10-13T08:00:24;6.70;;;1.98;;
35679;SDS011;21803;53.586;10.040;2023-10-13T08:02:58;12.23;;;1.92;;
35679;SDS011;21803;53.586;10.040;2023-10-13T08:05:53;5.97;;;1.55;;
35679;SDS011;21803;53.586;10.040;2023-10-13T08:08:37;8.98;;;1.52;;
35679;SDS011;21803;53.586;10.040;2023-10-13T08:11:06;6.57;;;1.70;;
35679;SDS011;21803;53.586;10.040;2023-10-13T08:13:51;6.40;;;1.40;;
35679;SDS011;21803;53.586;10.040;2023-10-13T08:16:36;9.98;;;1.88;;
35679;SDS011;21803;53.586;10.040;2023-10-13T08:19:21;4.85;;;1.30;;
35679;SDS011;21803;53.586;10.040;2023-10-13T08:22:04;4.90;;;1.42;;
35679;SDS011;21803;53.586;10.040;2023-10-13T08:24:59;5.18;;;1.70;;
35679;SDS011;21803;53.586;10.040;2023-10-13T08:27:45;4.70;;;1.77;;
35679;SDS011;21803;53.586;10.040;2023-10-13T08:30:15;10.25;;;1.95;;
35679;SDS011;21803;53.586;10.040;2023-10-13T08:32:57;5.35;;;1.42;;
35679;SDS011;21803;53.586;10.040;2023-10-13T08:35:24;4.05;;;1.85;;
35679;SDS011;21803;53.586;10.040;2023-10-13T08:37:59;3.60;;;1.58;;
35679;SDS011;21803;53.586;10.040;2023-10-13T08:40:30;3.08;;;1.27;;
35679;SDS011;21803;53.586;10.040;2023-10-13T08:43:14;4.47;;;1.23;;
35679;SDS011;21803;53.586;10.040;2023-10-13T08:45:42;2.55;;;1.33;;
35679;SDS011;21803;53.586;10.040;2023-10-13T08:48:09;5.50;;;1.30;;
35679;SDS011;21803;53.586;10.040;2023-10-13T08:50:36;2.25;;;1.30;;
35679;SDS011;21803;53.586;10.040;2023-10-13T08:58:46;6.78;;;1.58;;
35679;SDS011;21803;53.586;10.040;2023-10-13T09:01:28;4.10;;;1.40;;
35679;SDS011;21803;53.586;10.040;2023-10-13T09:04:19;3.72;;;1.15;;
35679;SDS011;21803;53.586;10.040;2023-10-13T09:07:03;2.95;;;1.38;;
35679;SDS011;21803;53.586;10.040;2023-10-13T09:12:20;2.28;;;1.20;;
35679;SDS011;21803;53.586;10.040;2023-10-13T09:15:08;4.57;;;1.65;;
35679;SDS011;21803;53.586;10.040;2023-10-13T09:17:40;2.55;;;1.40;;
35679;SDS011;21803;53.586;10.040;2023-10-13T09:20:15;3.67;;;1.35;;
35679;SDS011;21803;53.586;10.040;2023-10-13T09:22:51;1.83;;;1.30;;
35679;SDS011;21803;53.586;10.040;2023-10-13T09:25:36;3.60;;;1.35;;
35679;SDS011;21803;53.586;10.040;2023-10-13T09:30:42;3.72;;;1.20;;
35679;SDS011;21803;53.586;10.040;2023-10-13T09:33:11;3.00;;;1.20;;
35679;SDS011;21803;53.586;10.040;2023-10-13T09:35:45;2.55;;;1.25;;
35679;SDS011;21803;53.586;10.040;2023-10-13T09:38:15;2.85;;;1.25;;
35679;SDS011;21803;53.586;10.040;2023-10-13T09:40:42;1.50;;;1.20;;
35679;SDS011;21803;53.586;10.040;2023-10-13T09:43:26;2.75;;;1.20;;
35679;SDS011;21803;53.586;10.040;2023-10-13T09:45:58;3.90;;;1.10;;
35679;SDS011;21803;53.586;10.040;2023-10-13T09:48:34;2.90;;;1.23;;
35679;SDS011;21803;53.586;10.040;2023-10-13T09:51:02;1.30;;;1.10;;
35679;SDS011;21803;53.586;10.040;2023-10-13T09:53:34;4.22;;;1.23;;
35679;SDS011;21803;53.586;10.040;2023-10-13T09:56:14;1.85;;;1.33;;
35679;SDS011;21803;53.586;10.040;2023-10-13T09:58:52;1.98;;;1.38;;
35679;SDS011;21803;53.586;10.040;2023-10-13T10:01:24;1.48;;;1.20;;
35679;SDS011;21803;53.586;10.040;2023-10-13T10:04:08;2.88;;;1.15;;
35679;SDS011;21803;53.586;10.040;2023-10-13T10:06:51;2.08;;;1.05;;
35679;SDS011;21803;53.586;10.040;2023-10-13T10:09:17;1.70;;;1.13;;
35679;SDS011;21803;53.586;10.040;2023-10-13T10:17:26;1.90;;;1.30;;
35679;SDS011;21803;53.586;10.040;2023-10-13T10:19:54;1.98;;;1.20;;
35679;SDS011;21803;53.586;10.040;2023-10-13T10:22:27;1.20;;;0.98;;
35679;SDS011;21803;53.586;10.040;2023-10-13T10:24:58;1.77;;;1.27;;
35679;SDS011;21803;53.586;10.040;2023-10-13T10:27:29;2.13;;;1.10;;
35679;SDS011;21803;53.586;10.040;2023-10-13T10:29:56;2.22;;;1.35;;
35679;SDS011;21803;53.586;10.040;2023-10-13T10:32:32;2.65;;;1.10;;
35679;SDS011;21803;53.586;10.040;2023-10-13T10:35:05;1.08;;;0.98;;
35679;SDS011;21803;53.586;10.040;2023-10-13T10:37:33;2.53;;;1.10;;
35679;SDS011;21803;53.586;10.040;2023-10-13T10:39:59;2.13;;;1.10;;
35679;SDS011;21803;53.586;10.040;2023-10-13T10:42:30;1.48;;;1.00;;
35679;SDS011;21803;53.586;10.040;2023-10-13T10:44:56;1.38;;;1.05;;
35679;SDS011;21803;53.586;10.040;2023-10-13T10:47:30;1.42;;;1.00;;
35679;SDS011;21803;53.586;10.040;2023-10-13T10:49:58;1.88;;;1.17;;
35679;SDS011;21803;53.586;10.040;2023-10-13T10:52:44;2.33;;;1.13;;
35679;SDS011;21803;53.586;10.040;2023-10-13T10:55:11;1.65;;;1.13;;
35679;SDS011;21803;53.586;10.040;2023-10-13T10:57:39;1.02;;;0.90;;
35679;SDS011;21803;53.586;10.040;2023-10-13T11:00:17;1.40;;;0.98;;
35679;SDS011;21803;53.586;10.040;2023-10-13T11:02:53;2.30;;;1.10;;
35679;SDS011;21803;53.586;10.040;2023-10-13T11:05:19;1.20;;;1.10;;
35679;SDS011;21803;53.586;10.040;2023-10-13T11:07:45;2.65;;;1.30;;
35679;SDS011;21803;53.586;10.040;2023-10-13T11:10:17;1.73;;;1.00;;
35679;SDS011;21803;53.586;10.040;2023-10-13T11:12:56;1.20;;;1.10;;
35679;SDS011;21803;53.586;10.040;2023-10-13T11:15:43;1.50;;;1.20;;
35679;SDS011;21803;53.586;10.040;2023-10-13T11:18:12;1.23;;;1.08;;
35679;SDS011;21803;53.586;10.040;2023-10-13T11:20:47;1.10;;;1.00;;
35679;SDS011;21803;53.586;10.040;2023-10-13T11:23:19;1.35;;;1.10;;
35679;SDS011;21803;53.586;10.040;2023-10-13T11:25:56;1.48;;;1.08;;
35679;SDS011;21803;53.586;10.040;2023-10-13T11:28:25;1.10;;;1.00;;
35679;SDS011;21803;53.586;10.040;2023-10-13T11:30:54;1.33;;;1.23;;
35679;SDS011;21803;53.586;10.040;2023-10-13T11:33:35;4.55;;;1.20;;
35679;SDS011;21803;53.586;10.040;2023-10-13T11:36:01;1.35;;;1.25;;
35679;SDS011;21803;53.586;10.040;2023-10-13T11:38:29;1.35;;;1.13;;
35679;SDS011;21803;53.586;10.040;2023-10-13T11:41:14;1.40;;;1.00;;
35679;SDS011;21803;53.586;10.040;2023-10-13T11:46:09;2.38;;;1.23;;
35679;SDS011;21803;53.586;10.040;2023-10-13T11:48:34;1.35;;;1.20;;
35679;SDS011;21803;53.586;10.040;2023-10-13T11:51:05;1.35;;;1.10;;
35679;SDS011;21803;53.586;10.040;2023-10-13T11:53:32;1.23;;;1.13;;
35679;SDS011;21803;53.586;10.040;2023-10-13T11:55:59;2.13;;;1.05;;
35679;SDS011;21803;53.586;10.040;2023-10-13T11:58:24;2.22;;;1.25;;
35679;SDS011;21803;53.586;10.040;2023-10-13T12:00:50;1.40;;;1.30;;
35679;SDS011;21803;53.586;10.040;2023-10-13T12:03:16;1.35;;;1.20;;
35679;SDS011;21803;53.586;10.040;2023-10-13T12:06:00;1.23;;;1.10;;
35679;SDS011;21803;53.586;10.040;2023-10-13T12:08:44;3.58;;;1.15;;
35679;SDS011;21803;53.586;10.040;2023-10-13T12:11:17;1.10;;;1.00;;
35679;SDS011;21803;53.586;10.040;2023-10-13T12:13:55;1.52;;;1.20;;
35679;SDS011;21803;53.586;10.040;2023-10-13T12:16:22;1.50;;;1.20;;
35679;SDS011;21803;53.586;10.040;2023-10-13T12:18:47;1.10;;;1.00;;
35679;SDS011;21803;53.586;10.040;2023-10-13T12:21:19;2.53;;;1.40;;
35679;SDS011;21803;53.586;10.040;2023-10-13T12:23:46;1.30;;;1.10;;
35679;SDS011;21803;53.586;10.040;2023-10-13T12:26:12;1.45;;;1.23;;
35679;SDS011;21803;53.586;10.040;2023-10-13T12:28:57;1.50;;;1.20;;
35679;SDS011;21803;53.586;10.040;2023-10-13T12:31:31;1.35;;;1.13;;
35679;SDS011;21803;53.586;10.040;2023-10-13T12:34:04;1.35;;;1.08;;
35679;SDS011;21803;53.586;10.040;2023-10-13T12:36:39;1.70;;;1.17;;
35679;SDS011;21803;53.586;10.040;2023-10-13T12:39:18;2.20;;;1.00;;
35679;SDS011;21803;53.586;10.040;2023-10-13T12:42:02;1.38;;;1.10;;
35679;SDS011;21803;53.586;10.040;2023-10-13T12:44:46;1.30;;;1.20;;
35679;SDS011;21803;53.586;10.040;2023-10-13T12:47:30;1.20;;;1.10;;
35679;SDS011;21803;53.586;10.040;2023-10-13T12:50:14;2.08;;;1.35;;
35679;SDS011;21803;53.586;10.040;2023-10-13T12:52:59;1.10;;;0.90;;
35679;SDS011;21803;53.586;10.040;2023-10-13T12:55:24;1.35;;;1.17;;
35679;SDS011;21803;53.586;10.040;2023-10-13T12:57:50;2.33;;;1.48;;
35679;SDS011;21803;53.586;10.040;2023-10-13T13:00:16;1.75;;;1.08;;
35679;SDS011;21803;53.586;10.040;2023-10-13T13:02:46;2.28;;;0.95;;
35679;SDS011;21803;53.586;10.040;2023-10-13T13:05:11;1.65;;;1.13;;
35679;SDS011;21803;53.586;10.040;2023-10-13T13:07:37;1.83;;;1.10;;
35679;SDS011;21803;53.586;10.040;2023-10-13T13:10:17;1.85;;;1.00;;
35679;SDS011;21803;53.586;10.040;2023-10-13T13:12:43;2.10;;;1.10;;
35679;SDS011;21803;53.586;10.040;2023-10-13T13:15:09;1.20;;;1.10;;
35679;SDS011;21803;53.586;10.040;2023-10-13T13:17:36;1.65;;;1.00;;
35679;SDS011;21803;53.586;10.040;2023-10-13T13:20:03;1.10;;;1.00;;
35679;SDS011;21803;53.586;10.040;2023-10-13T13:22:39;1.02;;;0.93;;
35679;SDS011;21803;53.586;10.040;2023-10-13T13:25:05;1.30;;;1.20;;
35679;SDS011;21803;53.586;10.040;2023-10-13T13:27:34;1.50;;;1.35;;
35679;SDS011;21803;53.586;10.040;2023-10-13T13:30:01;1.65;;;1.10;;
35679;SDS011;21803;53.586;10.040;2023-10-13T13:32:36;1.40;;;1.15;;
35679;SDS011;21803;53.586;10.040;2023-10-13T13:35:02;1.67;;;1.10;;
35679;SDS011;21803;53.586;10.040;2023-10-13T13:37:32;1.85;;;1.30;;
35679;SDS011;21803;53.586;10.040;2023-10-13T13:39:58;2.03;;;1.20;;
35679;SDS011;21803;53.586;10.040;2023-10-13T13:42:46;2.70;;;1.05;;
35679;SDS011;21803;53.586;10.040;2023-10-13T13:45:12;1.45;;;1.08;;
35679;SDS011;21803;53.586;10.040;2023-10-13T13:47:54;1.20;;;1.10;;
35679;SDS011;21803;53.586;10.040;2023-10-13T13:50:23;1.13;;;1.02;;
35679;SDS011;21803;53.586;10.040;2023-10-13T13:52:54;1.70;;;1.30;;
35679;SDS011;21803;53.586;10.040;2023-10-13T13:55:22;1.40;;;1.10;;
35679;SDS011;21803;53.586;10.040;2023-10-13T13:57:48;1.67;;;1.27;;
35679;SDS011;21803;53.586;10.040;2023-10-13T14:00:15;1.35;;;1.10;;
35679;SDS011;21803;53.586;10.040;2023-10-13T14:02:43;1.33;;;1.17;;
35679;SDS011;21803;53.586;10.040;2023-10-13T14:05:15;2.15;;;1.08;;
35679;SDS011;21803;53.586;10.040;2023-10-13T14:07:42;1.77;;;1.30;;
35679;SDS011;21803;53.586;10.040;2023-10-13T14:10:13;2.97;;;1.40;;
35679;SDS011;21803;53.586;10.040;2023-10-13T14:12:56;1.30;;;1.13;;
35679;SDS011;21803;53.586;10.040;2023-10-13T14:15:39;2.08;;;1.33;;
35679;SDS011;21803;53.586;10.040;2023-10-13T14:18:08;1.38;;;1.27;;
35679;SDS011;21803;53.586;10.040;2023-10-13T14:20:39;1.42;;;1.20;;
35679;SDS011;21803;53.586;10.040;2023-10-13T14:23:08;1.30;;;1.20;;
35679;SDS011;21803;53.586;10.040;2023-10-13T14:25:37;1.20;;;1.10;;
35679;SDS011;21803;53.586;10.040;2023-10-13T14:28:06;2.10;;;1.20;;
35679;SDS011;21803;53.586;10.040;2023-10-13T14:30:32;1.70;;;1.60;;
35679;SDS011;21803;53.586;10.040;2023-10-13T14:32:58;1.30;;;1.05;;
35679;SDS011;21803;53.586;10.040;2023-10-13T14:35:24;1.67;;;1.10;;
35679;SDS011;21803;53.586;10.040;2023-10-13T14:37:51;1.95;;;1.10;;
35679;SDS011;21803;53.586;10.040;2023-10-13T14:40:19;2.15;;;1.40;;
35679;SDS011;21803;53.586;10.040;2023-10-13T14:42:48;1.50;;;1.33;;
35679;SDS011;21803;53.586;10.040;2023-10-13T14:45:13;1.80;;;1.35;;
35679;SDS011;21803;53.586;10.040;2023-10-13T14:47:41;1.77;;;1.20;;
35679;SDS011;21803;53.586;10.040;2023-10-13T14:50:08;2.75;;;1.33;;
35679;SDS011;21803;53.586;10.040;2023-10-13T14:52:42;2.88;;;1.45;;
35679;SDS011;21803;53.586;10.040;2023-10-13T14:55:08;2.13;;;1.58;;
35679;SDS011;21803;53.586;10.040;2023-10-13T14:57:43;1.70;;;1.25;;
35679;SDS011;21803;53.586;10.040;2023-10-13T15:00:10;1.45;;;1.20;;
35679;SDS011;21803;53.586;10.040;2023-10-13T15:02:38;1.55;;;1.10;;
35679;SDS011;21803;53.586;10.040;2023-10-13T15:05:04;1.33;;;1.20;;
35679;SDS011;21803;53.586;10.040;2023-10-13T15:07:29;1.40;;;1.30;;
35679;SDS011;21803;53.586;10.040;2023-10-13T15:09:55;1.83;;;1.20;;
35679;SDS011;21803;53.586;10.040;2023-10-13T15:12:22;2.15;;;1.23;;
35679;SDS011;21803;53.586;10.040;2023-10-13T15:14:47;3.58;;;1.30;;
35679;SDS011;21803;53.586;10.040;2023-10-13T15:17:13;1.70;;;1.27;;
35679;SDS011;21803;53.586;10.040;2023-10-13T15:19:41;1.73;;;1.17;;
35679;SDS011;21803;53.586;10.040;2023-10-13T15:22:08;1.35;;;1.13;;
35679;SDS011;21803;53.586;10.040;2023-10-13T15:24:41;2.97;;;1.50;;
35679;SDS011;21803;53.586;10.040;2023-10-13T15:27:10;2.58;;;1.38;;
35679;SDS011;21803;53.586;10.040;2023-10-13T15:29:36;1.88;;;1.30;;
35679;SDS011;21803;53.586;10.040;2023-10-13T15:32:06;2.95;;;1.50;;
35679;SDS011;21803;53.586;10.040;2023-10-13T15:34:57;2.15;;;1.27;;
35679;SDS011;21803;53.586;10.040;2023-10-13T15:37:23;2.28;;;1.70;;
35679;SDS011;21803;53.586;10.040;2023-10-13T15:39:50;3.00;;;1.38;;
35679;SDS011;21803;53.586;10.040;2023-10-13T15:42:17;1.90;;;1.42;;
35679;SDS011;21803;53.586;10.040;2023-10-13T15:44:43;2.05;;;1.45;;